sensor_id;sensor_type;location;lat;lon;timestamp;P1;durP1;ratioP1;P2;durP2;ratioP2
59474;SDS011;45288;51.136;16.928;2023-03-14T00:01:39;8.30;;;5.07;;
59474;SDS011;45288;51.136;16.928;2023-03-14T00:04:05;18.30;;;6.80;;
59474;SDS011;45288;51.136;16.928;2023-03-14T00:06:30;25.02;;;20.38;;
59474;SDS011;45288;51.136;16.928;2023-03-14T00:08:56;9.80;;;5.18;;
59474;SDS011;45288;51.136;16.928;2023-03-14T00:11:22;25.33;;;12.57;;
59474;SDS011;45288;51.136;16.928;2023-03-14T00:13:51;15.18;;;5.90;;
59474;SDS011;45288;51.136;16.928;2023-03-14T00:16:17;16.25;;;6.80;;
59474;SDS011;45288;51.136;16.928;2023-03-14T00:18:42;85.43;;;78.72;;
59474;SDS011;45288;51.136;16.928;2023-03-14T00:21:08;10.85;;;5.15;;
59474;SDS011;45288;51.136;16.928;2023-03-14T00:23:35;24.52;;;12.13;;
59474;SDS011;45288;51.136;16.928;2023-03-14T00:26:02;374.27;;;348.83;;
59474;SDS011;45288;51.136;16.928;2023-03-14T00:28:28;229.52;;;213.95;;
59474;SDS011;45288;51.136;16.928;2023-03-14T00:30:54;527.92;;;491.42;;
59474;SDS011;45288;51.136;16.928;2023-03-14T00:33:20;512.33;;;475.83;;
59474;SDS011;45288;51.136;16.928;2023-03-14T00:35:53;631.88;;;587.80;;
59474;SDS011;45288;51.136;16.928;2023-03-14T00:38:18;22.13;;;9.48;;
59474;SDS011;45288;51.136;16.928;2023-03-14T00:40:44;176.13;;;164.13;;
59474;SDS011;45288;51.136;16.928;2023-03-14T00:43:09;328.88;;;306.13;;
59474;SDS011;45288;51.136;16.928;2023-03-14T00:45:35;719.67;;;668.33;;
59474;SDS011;45288;51.136;16.928;2023-03-14T00:48:01;682.17;;;634.00;;
59474;SDS011;45288;51.136;16.928;2023-03-14T00:50:27;836.97;;;775.87;;
59474;SDS011;45288;51.136;16.928;2023-03-14T00:52:52;287.95;;;269.13;;
59474;SDS011;45288;51.136;16.928;2023-03-14T00:55:18;608.63;;;566.73;;
59474;SDS011;45288;51.136;16.928;2023-03-14T00:57:44;997.93;;;921.47;;
59474;SDS011;45288;51.136;16.928;2023-03-14T01:00:10;1046.20;;;963.78;;
59474;SDS011;45288;51.136;16.928;2023-03-14T01:02:37;1197.50;;;999.90;;
59474;SDS011;45288;51.136;16.928;2023-03-14T01:05:03;408.80;;;376.23;;
59474;SDS011;45288;51.136;16.928;2023-03-14T01:07:29;22.63;;;7.95;;
59474;SDS011;45288;51.136;16.928;2023-03-14T01:09:54;120.72;;;112.40;;
59474;SDS011;45288;51.136;16.928;2023-03-14T01:12:20;348.60;;;324.03;;
59474;SDS011;45288;51.136;16.928;2023-03-14T01:14:46;258.67;;;241.38;;
59474;SDS011;45288;51.136;16.928;2023-03-14T01:17:11;240.97;;;222.30;;
59474;SDS011;45288;51.136;16.928;2023-03-14T01:19:37;170.10;;;158.27;;
59474;SDS011;45288;51.136;16.928;2023-03-14T01:22:03;5.80;;;4.10;;
59474;SDS011;45288;51.136;16.928;2023-03-14T01:24:28;9.57;;;4.28;;
59474;SDS011;45288;51.136;16.928;2023-03-14T01:26:54;7.97;;;4.77;;
59474;SDS011;45288;51.136;16.928;2023-03-14T01:29:23;768.63;;;713.15;;
59474;SDS011;45288;51.136;16.928;2023-03-14T01:31:48;319.47;;;294.83;;
59474;SDS011;45288;51.136;16.928;2023-03-14T01:34:14;10.40;;;5.35;;
59474;SDS011;45288;51.136;16.928;2023-03-14T01:36:40;7.57;;;4.30;;
59474;SDS011;45288;51.136;16.928;2023-03-14T01:39:05;6.43;;;4.25;;
59474;SDS011;45288;51.136;16.928;2023-03-14T01:41:31;12.15;;;5.85;;
59474;SDS011;45288;51.136;16.928;2023-03-14T01:43:59;12.15;;;6.10;;
59474;SDS011;45288;51.136;16.928;2023-03-14T01:46:29;11.00;;;5.60;;
59474;SDS011;45288;51.136;16.928;2023-03-14T01:49:01;15.73;;;8.93;;
59474;SDS011;45288;51.136;16.928;2023-03-14T01:51:37;13.82;;;6.15;;
59474;SDS011;45288;51.136;16.928;2023-03-14T01:54:07;24.23;;;8.48;;
59474;SDS011;45288;51.136;16.928;2023-03-14T01:56:36;252.70;;;234.43;;
59474;SDS011;45288;51.136;16.928;2023-03-14T01:59:03;22.10;;;8.27;;
59474;SDS011;45288;51.136;16.928;2023-03-14T02:01:29;26.57;;;9.33;;
59474;SDS011;45288;51.136;16.928;2023-03-14T02:03:56;25.55;;;9.20;;
59474;SDS011;45288;51.136;16.928;2023-03-14T02:06:26;37.75;;;22.08;;
59474;SDS011;45288;51.136;16.928;2023-03-14T02:08:56;106.00;;;98.60;;
59474;SDS011;45288;51.136;16.928;2023-03-14T02:11:26;128.45;;;118.68;;
59474;SDS011;45288;51.136;16.928;2023-03-14T02:14:01;13.93;;;6.27;;
59474;SDS011;45288;51.136;16.928;2023-03-14T02:16:56;25.97;;;8.70;;
59474;SDS011;45288;51.136;16.928;2023-03-14T02:22:31;121.90;;;112.45;;
59474;SDS011;45288;51.136;16.928;2023-03-14T02:27:30;29.70;;;9.93;;
59474;SDS011;45288;51.136;16.928;2023-03-14T02:32:29;37.05;;;24.70;;
59474;SDS011;45288;51.136;16.928;2023-03-14T02:34:56;354.98;;;329.85;;
59474;SDS011;45288;51.136;16.928;2023-03-14T02:37:24;359.10;;;331.02;;
59474;SDS011;45288;51.136;16.928;2023-03-14T02:39:52;255.68;;;236.10;;
59474;SDS011;45288;51.136;16.928;2023-03-14T02:42:19;372.33;;;340.48;;
59474;SDS011;45288;51.136;16.928;2023-03-14T02:44:48;540.03;;;488.37;;
59474;SDS011;45288;51.136;16.928;2023-03-14T02:47:15;446.92;;;402.90;;
59474;SDS011;45288;51.136;16.928;2023-03-14T02:49:41;295.03;;;270.97;;
59474;SDS011;45288;51.136;16.928;2023-03-14T02:52:07;317.50;;;288.67;;
59474;SDS011;45288;51.136;16.928;2023-03-14T02:54:32;409.02;;;368.48;;
59474;SDS011;45288;51.136;16.928;2023-03-14T02:56:58;194.13;;;178.50;;
59474;SDS011;45288;51.136;16.928;2023-03-14T02:59:24;202.63;;;184.88;;
59474;SDS011;45288;51.136;16.928;2023-03-14T03:01:54;347.02;;;315.55;;
59474;SDS011;45288;51.136;16.928;2023-03-14T03:04:19;167.37;;;154.73;;
59474;SDS011;45288;51.136;16.928;2023-03-14T03:06:45;284.35;;;262.25;;
59474;SDS011;45288;51.136;16.928;2023-03-14T03:09:11;108.03;;;100.68;;
59474;SDS011;45288;51.136;16.928;2023-03-14T03:11:37;76.88;;;70.22;;
59474;SDS011;45288;51.136;16.928;2023-03-14T03:14:06;440.92;;;405.40;;
59474;SDS011;45288;51.136;16.928;2023-03-14T03:16:32;111.90;;;104.00;;
59474;SDS011;45288;51.136;16.928;2023-03-14T03:18:59;23.90;;;8.15;;
59474;SDS011;45288;51.136;16.928;2023-03-14T03:21:25;28.15;;;10.57;;
59474;SDS011;45288;51.136;16.928;2023-03-14T03:23:51;22.43;;;7.60;;
59474;SDS011;45288;51.136;16.928;2023-03-14T03:26:16;265.20;;;243.38;;
59474;SDS011;45288;51.136;16.928;2023-03-14T03:28:42;233.05;;;216.23;;
59474;SDS011;45288;51.136;16.928;2023-03-14T03:31:09;199.57;;;185.93;;
59474;SDS011;45288;51.136;16.928;2023-03-14T03:33:36;241.88;;;223.32;;
59474;SDS011;45288;51.136;16.928;2023-03-14T03:36:02;321.50;;;296.30;;
59474;SDS011;45288;51.136;16.928;2023-03-14T03:38:34;392.65;;;359.70;;
59474;SDS011;45288;51.136;16.928;2023-03-14T03:41:04;638.25;;;576.83;;
59474;SDS011;45288;51.136;16.928;2023-03-14T03:43:30;452.40;;;411.17;;
59474;SDS011;45288;51.136;16.928;2023-03-14T03:45:57;543.95;;;490.48;;
59474;SDS011;45288;51.136;16.928;2023-03-14T03:48:23;255.00;;;237.43;;
59474;SDS011;45288;51.136;16.928;2023-03-14T03:50:48;308.35;;;287.33;;
59474;SDS011;45288;51.136;16.928;2023-03-14T03:53:18;397.30;;;368.40;;
59474;SDS011;45288;51.136;16.928;2023-03-14T03:55:44;129.77;;;120.53;;
59474;SDS011;45288;51.136;16.928;2023-03-14T03:58:10;103.10;;;96.22;;
59474;SDS011;45288;51.136;16.928;2023-03-14T04:00:36;145.03;;;135.13;;
59474;SDS011;45288;51.136;16.928;2023-03-14T04:03:01;116.78;;;108.40;;
59474;SDS011;45288;51.136;16.928;2023-03-14T04:05:27;174.40;;;162.05;;
59474;SDS011;45288;51.136;16.928;2023-03-14T04:08:00;286.33;;;263.20;;
59474;SDS011;45288;51.136;16.928;2023-03-14T04:10:27;225.65;;;206.18;;
59474;SDS011;45288;51.136;16.928;2023-03-14T04:13:15;328.83;;;302.90;;
59474;SDS011;45288;51.136;16.928;2023-03-14T04:15:45;948.63;;;875.43;;
59474;SDS011;45288;51.136;16.928;2023-03-14T04:18:17;751.03;;;694.55;;
59474;SDS011;45288;51.136;16.928;2023-03-14T04:20:43;61.60;;;55.92;;
59474;SDS011;45288;51.136;16.928;2023-03-14T04:23:10;23.92;;;10.85;;
59474;SDS011;45288;51.136;16.928;2023-03-14T04:25:36;20.10;;;6.75;;
59474;SDS011;45288;51.136;16.928;2023-03-14T04:28:04;37.53;;;30.92;;
59474;SDS011;45288;51.136;16.928;2023-03-14T04:30:31;80.45;;;73.35;;
59474;SDS011;45288;51.136;16.928;2023-03-14T04:33:05;30.77;;;23.83;;
59474;SDS011;45288;51.136;16.928;2023-03-14T04:35:36;120.78;;;109.32;;
59474;SDS011;45288;51.136;16.928;2023-03-14T04:38:06;106.93;;;98.68;;
59474;SDS011;45288;51.136;16.928;2023-03-14T04:40:35;57.25;;;51.85;;
59474;SDS011;45288;51.136;16.928;2023-03-14T04:43:04;21.02;;;7.50;;
59474;SDS011;45288;51.136;16.928;2023-03-14T04:45:30;28.98;;;8.73;;
59474;SDS011;45288;51.136;16.928;2023-03-14T04:47:58;18.00;;;6.43;;
59474;SDS011;45288;51.136;16.928;2023-03-14T04:50:24;23.95;;;7.88;;
59474;SDS011;45288;51.136;16.928;2023-03-14T04:52:50;21.55;;;7.00;;
59474;SDS011;45288;51.136;16.928;2023-03-14T04:55:16;17.70;;;6.35;;
59474;SDS011;45288;51.136;16.928;2023-03-14T04:57:41;216.83;;;197.40;;
59474;SDS011;45288;51.136;16.928;2023-03-14T05:00:09;368.65;;;339.00;;
59474;SDS011;45288;51.136;16.928;2023-03-14T05:02:55;159.73;;;147.00;;
59474;SDS011;45288;51.136;16.928;2023-03-14T05:05:39;242.98;;;220.90;;
59474;SDS011;45288;51.136;16.928;2023-03-14T05:08:05;376.20;;;342.30;;
59474;SDS011;45288;51.136;16.928;2023-03-14T05:10:52;29.85;;;10.98;;
59474;SDS011;45288;51.136;16.928;2023-03-14T05:13:38;20.07;;;7.23;;
59474;SDS011;45288;51.136;16.928;2023-03-14T05:16:16;27.00;;;15.75;;
59474;SDS011;45288;51.136;16.928;2023-03-14T05:18:50;107.22;;;98.55;;
59474;SDS011;45288;51.136;16.928;2023-03-14T05:21:45;36.10;;;30.20;;
59474;SDS011;45288;51.136;16.928;2023-03-14T05:24:31;21.88;;;7.78;;
59474;SDS011;45288;51.136;16.928;2023-03-14T05:27:03;25.92;;;17.00;;
59474;SDS011;45288;51.136;16.928;2023-03-14T05:29:28;23.63;;;12.52;;
59474;SDS011;45288;51.136;16.928;2023-03-14T05:32:23;25.95;;;8.93;;
59474;SDS011;45288;51.136;16.928;2023-03-14T05:35:15;24.27;;;8.20;;
59474;SDS011;45288;51.136;16.928;2023-03-14T05:37:48;49.53;;;33.25;;
59474;SDS011;45288;51.136;16.928;2023-03-14T05:40:36;79.35;;;71.25;;
59474;SDS011;45288;51.136;16.928;2023-03-14T05:43:23;134.88;;;121.70;;
59474;SDS011;45288;51.136;16.928;2023-03-14T05:46:12;23.88;;;12.52;;
59474;SDS011;45288;51.136;16.928;2023-03-14T05:48:47;31.27;;;12.35;;
59474;SDS011;45288;51.136;16.928;2023-03-14T05:51:22;26.03;;;8.40;;
59474;SDS011;45288;51.136;16.928;2023-03-14T05:54:20;43.00;;;37.72;;
59474;SDS011;45288;51.136;16.928;2023-03-14T05:57:09;28.00;;;15.68;;
59474;SDS011;45288;51.136;16.928;2023-03-14T05:59:44;31.83;;;20.33;;
59474;SDS011;45288;51.136;16.928;2023-03-14T06:02:30;40.13;;;22.75;;
59474;SDS011;45288;51.136;16.928;2023-03-14T06:05:04;35.35;;;18.42;;
59474;SDS011;45288;51.136;16.928;2023-03-14T06:07:30;42.38;;;25.25;;
59474;SDS011;45288;51.136;16.928;2023-03-14T06:09:56;201.03;;;187.50;;
59474;SDS011;45288;51.136;16.928;2023-03-14T06:12:21;49.70;;;44.65;;
59474;SDS011;45288;51.136;16.928;2023-03-14T06:14:47;54.33;;;48.70;;
59474;SDS011;45288;51.136;16.928;2023-03-14T06:17:14;40.50;;;35.78;;
59474;SDS011;45288;51.136;16.928;2023-03-14T06:19:48;48.03;;;42.17;;
59474;SDS011;45288;51.136;16.928;2023-03-14T06:22:13;97.10;;;89.50;;
59474;SDS011;45288;51.136;16.928;2023-03-14T06:24:40;53.33;;;47.57;;
59474;SDS011;45288;51.136;16.928;2023-03-14T06:27:05;338.90;;;316.35;;
59474;SDS011;45288;51.136;16.928;2023-03-14T06:29:31;123.57;;;113.38;;
59474;SDS011;45288;51.136;16.928;2023-03-14T06:31:57;322.30;;;300.13;;
59474;SDS011;45288;51.136;16.928;2023-03-14T06:34:23;375.35;;;349.08;;
59474;SDS011;45288;51.136;16.928;2023-03-14T06:36:49;336.30;;;313.08;;
59474;SDS011;45288;51.136;16.928;2023-03-14T06:39:15;372.53;;;346.20;;
59474;SDS011;45288;51.136;16.928;2023-03-14T06:41:44;269.38;;;250.43;;
59474;SDS011;45288;51.136;16.928;2023-03-14T06:44:10;448.13;;;415.97;;
59474;SDS011;45288;51.136;16.928;2023-03-14T06:46:37;683.50;;;635.15;;
59474;SDS011;45288;51.136;16.928;2023-03-14T06:49:03;425.70;;;392.80;;
59474;SDS011;45288;51.136;16.928;2023-03-14T06:51:28;526.47;;;486.87;;
59474;SDS011;45288;51.136;16.928;2023-03-14T06:53:54;234.65;;;213.07;;
59474;SDS011;45288;51.136;16.928;2023-03-14T06:56:24;580.75;;;530.03;;
59474;SDS011;45288;51.136;16.928;2023-03-14T06:58:49;262.98;;;234.40;;
59474;SDS011;45288;51.136;16.928;2023-03-14T07:01:26;902.25;;;836.85;;
59474;SDS011;45288;51.136;16.928;2023-03-14T07:03:55;920.58;;;858.17;;
59474;SDS011;45288;51.136;16.928;2023-03-14T07:06:21;1078.07;;;999.90;;
59474;SDS011;45288;51.136;16.928;2023-03-14T07:08:47;473.42;;;439.90;;
59474;SDS011;45288;51.136;16.928;2023-03-14T07:11:15;738.17;;;686.93;;
59474;SDS011;45288;51.136;16.928;2023-03-14T07:13:40;1075.65;;;996.80;;
59474;SDS011;45288;51.136;16.928;2023-03-14T07:16:07;1028.75;;;947.25;;
59474;SDS011;45288;51.136;16.928;2023-03-14T07:18:33;923.72;;;853.72;;
59474;SDS011;45288;51.136;16.928;2023-03-14T07:21:01;181.65;;;168.43;;
59474;SDS011;45288;51.136;16.928;2023-03-14T07:23:28;536.70;;;499.17;;
59474;SDS011;45288;51.136;16.928;2023-03-14T07:25:55;1084.40;;;992.03;;
59474;SDS011;45288;51.136;16.928;2023-03-14T07:28:23;1100.97;;;999.90;;
59474;SDS011;45288;51.136;16.928;2023-03-14T07:30:54;1227.70;;;999.90;;
59474;SDS011;45288;51.136;16.928;2023-03-14T07:33:25;1187.57;;;999.90;;
59474;SDS011;45288;51.136;16.928;2023-03-14T07:35:51;1175.50;;;999.90;;
59474;SDS011;45288;51.136;16.928;2023-03-14T07:38:17;1064.80;;;976.13;;
59474;SDS011;45288;51.136;16.928;2023-03-14T07:41:06;11.68;;;5.70;;
59474;SDS011;45288;51.136;16.928;2023-03-14T07:43:35;138.45;;;127.82;;
59474;SDS011;45288;51.136;16.928;2023-03-14T07:46:00;111.82;;;101.00;;
59474;SDS011;45288;51.136;16.928;2023-03-14T07:48:26;31.13;;;8.40;;
59474;SDS011;45288;51.136;16.928;2023-03-14T07:50:53;34.17;;;9.13;;
59474;SDS011;45288;51.136;16.928;2023-03-14T07:53:18;20.95;;;7.15;;
59474;SDS011;45288;51.136;16.928;2023-03-14T07:55:44;27.60;;;8.35;;
59474;SDS011;45288;51.136;16.928;2023-03-14T07:58:11;28.00;;;8.00;;
59474;SDS011;45288;51.136;16.928;2023-03-14T08:00:36;33.40;;;17.27;;
59474;SDS011;45288;51.136;16.928;2023-03-14T08:03:02;113.83;;;105.13;;
59474;SDS011;45288;51.136;16.928;2023-03-14T08:05:27;102.83;;;93.93;;
59474;SDS011;45288;51.136;16.928;2023-03-14T08:07:53;209.63;;;191.00;;
59474;SDS011;45288;51.136;16.928;2023-03-14T08:10:19;249.73;;;229.63;;
59474;SDS011;45288;51.136;16.928;2023-03-14T08:12:54;367.55;;;338.33;;
59474;SDS011;45288;51.136;16.928;2023-03-14T08:15:20;479.80;;;445.00;;
59474;SDS011;45288;51.136;16.928;2023-03-14T08:17:46;268.05;;;246.27;;
59474;SDS011;45288;51.136;16.928;2023-03-14T08:20:16;595.35;;;552.13;;
59474;SDS011;45288;51.136;16.928;2023-03-14T08:22:42;965.60;;;894.72;;
59474;SDS011;45288;51.136;16.928;2023-03-14T08:25:08;897.47;;;832.60;;
59474;SDS011;45288;51.136;16.928;2023-03-14T08:27:34;933.22;;;867.05;;
59474;SDS011;45288;51.136;16.928;2023-03-14T08:29:59;415.73;;;380.00;;
59474;SDS011;45288;51.136;16.928;2023-03-14T08:32:25;417.33;;;381.23;;
59474;SDS011;45288;51.136;16.928;2023-03-14T08:34:51;424.87;;;388.13;;
59474;SDS011;45288;51.136;16.928;2023-03-14T08:37:16;333.90;;;306.43;;
59474;SDS011;45288;51.136;16.928;2023-03-14T08:39:42;573.85;;;523.85;;
59474;SDS011;45288;51.136;16.928;2023-03-14T08:42:07;588.27;;;537.80;;
59474;SDS011;45288;51.136;16.928;2023-03-14T08:44:33;552.65;;;504.30;;
59474;SDS011;45288;51.136;16.928;2023-03-14T08:46:59;710.17;;;649.85;;
59474;SDS011;45288;51.136;16.928;2023-03-14T08:49:24;697.07;;;641.30;;
59474;SDS011;45288;51.136;16.928;2023-03-14T08:51:50;10.40;;;5.55;;
59474;SDS011;45288;51.136;16.928;2023-03-14T08:54:15;6.33;;;3.87;;
59474;SDS011;45288;51.136;16.928;2023-03-14T08:56:41;7.17;;;4.07;;
59474;SDS011;45288;51.136;16.928;2023-03-14T08:59:07;7.32;;;4.32;;
59474;SDS011;45288;51.136;16.928;2023-03-14T09:01:33;6.22;;;3.85;;
59474;SDS011;45288;51.136;16.928;2023-03-14T09:03:59;5.90;;;3.70;;
59474;SDS011;45288;51.136;16.928;2023-03-14T09:06:24;6.13;;;3.80;;
59474;SDS011;45288;51.136;16.928;2023-03-14T09:08:50;5.57;;;3.80;;
59474;SDS011;45288;51.136;16.928;2023-03-14T09:11:15;7.40;;;4.10;;
59474;SDS011;45288;51.136;16.928;2023-03-14T09:13:41;6.37;;;3.63;;
59474;SDS011;45288;51.136;16.928;2023-03-14T09:16:07;6.43;;;3.88;;
59474;SDS011;45288;51.136;16.928;2023-03-14T09:18:32;6.97;;;3.90;;
59474;SDS011;45288;51.136;16.928;2023-03-14T09:20:58;6.83;;;3.87;;
59474;SDS011;45288;51.136;16.928;2023-03-14T09:23:24;6.10;;;4.13;;
59474;SDS011;45288;51.136;16.928;2023-03-14T09:25:53;6.68;;;4.00;;
59474;SDS011;45288;51.136;16.928;2023-03-14T09:28:19;6.23;;;4.27;;
59474;SDS011;45288;51.136;16.928;2023-03-14T09:30:45;7.10;;;4.07;;
59474;SDS011;45288;51.136;16.928;2023-03-14T09:33:10;7.53;;;4.65;;
59474;SDS011;45288;51.136;16.928;2023-03-14T09:35:38;7.88;;;4.45;;
59474;SDS011;45288;51.136;16.928;2023-03-14T09:38:04;8.40;;;4.50;;
59474;SDS011;45288;51.136;16.928;2023-03-14T09:40:32;7.77;;;4.50;;
59474;SDS011;45288;51.136;16.928;2023-03-14T09:42:58;7.55;;;4.45;;
59474;SDS011;45288;51.136;16.928;2023-03-14T09:45:28;8.38;;;4.75;;
59474;SDS011;45288;51.136;16.928;2023-03-14T09:47:55;10.23;;;5.13;;
59474;SDS011;45288;51.136;16.928;2023-03-14T09:50:21;8.70;;;4.90;;
59474;SDS011;45288;51.136;16.928;2023-03-14T09:52:48;8.10;;;4.97;;
59474;SDS011;45288;51.136;16.928;2023-03-14T09:55:16;9.10;;;4.75;;
59474;SDS011;45288;51.136;16.928;2023-03-14T09:57:43;10.80;;;5.47;;
59474;SDS011;45288;51.136;16.928;2023-03-14T10:00:13;10.00;;;4.70;;
59474;SDS011;45288;51.136;16.928;2023-03-14T10:02:40;9.40;;;5.23;;
59474;SDS011;45288;51.136;16.928;2023-03-14T10:05:17;10.20;;;5.40;;
59474;SDS011;45288;51.136;16.928;2023-03-14T10:07:43;12.73;;;6.22;;
59474;SDS011;45288;51.136;16.928;2023-03-14T10:10:10;11.27;;;5.97;;
59474;SDS011;45288;51.136;16.928;2023-03-14T10:12:37;15.70;;;6.78;;
59474;SDS011;45288;51.136;16.928;2023-03-14T10:15:08;12.48;;;5.80;;
59474;SDS011;45288;51.136;16.928;2023-03-14T10:17:41;13.50;;;6.03;;
59474;SDS011;45288;51.136;16.928;2023-03-14T10:20:14;9.18;;;5.30;;
59474;SDS011;45288;51.136;16.928;2023-03-14T10:22:52;10.50;;;5.00;;
59474;SDS011;45288;51.136;16.928;2023-03-14T10:25:27;8.20;;;4.88;;
59474;SDS011;45288;51.136;16.928;2023-03-14T10:27:53;8.52;;;5.25;;
59474;SDS011;45288;51.136;16.928;2023-03-14T10:32:52;10.95;;;5.32;;
59474;SDS011;45288;51.136;16.928;2023-03-14T10:35:19;8.73;;;4.73;;
59474;SDS011;45288;51.136;16.928;2023-03-14T10:40:14;9.45;;;5.20;;
59474;SDS011;45288;51.136;16.928;2023-03-14T10:42:41;8.68;;;4.82;;
59474;SDS011;45288;51.136;16.928;2023-03-14T10:45:43;10.38;;;5.13;;
59474;SDS011;45288;51.136;16.928;2023-03-14T10:54:19;9.43;;;4.93;;
59474;SDS011;45288;51.136;16.928;2023-03-14T10:56:20;8.52;;;4.20;;
59474;SDS011;45288;51.136;16.928;2023-03-14T10:58:47;9.35;;;5.00;;
59474;SDS011;45288;51.136;16.928;2023-03-14T11:03:38;10.20;;;4.90;;
59474;SDS011;45288;51.136;16.928;2023-03-14T11:06:12;8.60;;;4.57;;
59474;SDS011;45288;51.136;16.928;2023-03-14T11:08:46;10.75;;;5.13;;
59474;SDS011;45288;51.136;16.928;2023-03-14T11:11:18;13.37;;;5.20;;
59474;SDS011;45288;51.136;16.928;2023-03-14T11:16:30;10.48;;;4.68;;
59474;SDS011;45288;51.136;16.928;2023-03-14T11:19:17;9.75;;;4.70;;
59474;SDS011;45288;51.136;16.928;2023-03-14T11:29:12;10.70;;;5.13;;
59474;SDS011;45288;51.136;16.928;2023-03-14T11:31:41;12.00;;;5.13;;
59474;SDS011;45288;51.136;16.928;2023-03-14T11:36:59;11.73;;;5.35;;
59474;SDS011;45288;51.136;16.928;2023-03-14T11:39:26;19.65;;;6.55;;
59474;SDS011;45288;51.136;16.928;2023-03-14T11:41:54;22.25;;;6.68;;
59474;SDS011;45288;51.136;16.928;2023-03-14T11:44:24;17.13;;;5.70;;
59474;SDS011;45288;51.136;16.928;2023-03-14T11:46:59;20.88;;;6.47;;
59474;SDS011;45288;51.136;16.928;2023-03-14T11:52:01;16.77;;;5.80;;
59474;SDS011;45288;51.136;16.928;2023-03-14T11:57:03;19.15;;;6.18;;
59474;SDS011;45288;51.136;16.928;2023-03-14T11:59:36;24.08;;;7.38;;
59474;SDS011;45288;51.136;16.928;2023-03-14T12:02:04;17.60;;;5.93;;
59474;SDS011;45288;51.136;16.928;2023-03-14T12:04:35;19.77;;;6.45;;
59474;SDS011;45288;51.136;16.928;2023-03-14T12:07:11;20.60;;;7.20;;
59474;SDS011;45288;51.136;16.928;2023-03-14T12:09:38;24.05;;;7.82;;
59474;SDS011;45288;51.136;16.928;2023-03-14T12:12:04;18.05;;;6.25;;
59474;SDS011;45288;51.136;16.928;2023-03-14T12:14:36;21.38;;;6.43;;
59474;SDS011;45288;51.136;16.928;2023-03-14T12:19:38;21.90;;;6.28;;
59474;SDS011;45288;51.136;16.928;2023-03-14T12:24:34;19.33;;;6.32;;
59474;SDS011;45288;51.136;16.928;2023-03-14T12:27:02;14.25;;;4.95;;
59474;SDS011;45288;51.136;16.928;2023-03-14T12:29:28;18.42;;;6.22;;
59474;SDS011;45288;51.136;16.928;2023-03-14T12:34:28;18.27;;;6.40;;
59474;SDS011;45288;51.136;16.928;2023-03-14T12:36:55;18.92;;;6.57;;
59474;SDS011;45288;51.136;16.928;2023-03-14T12:41:52;16.38;;;6.10;;
59474;SDS011;45288;51.136;16.928;2023-03-14T12:44:40;15.88;;;5.93;;
59474;SDS011;45288;51.136;16.928;2023-03-14T12:49:42;22.13;;;6.97;;
59474;SDS011;45288;51.136;16.928;2023-03-14T12:52:13;18.00;;;6.33;;
59474;SDS011;45288;51.136;16.928;2023-03-14T12:54:40;17.45;;;6.65;;
59474;SDS011;45288;51.136;16.928;2023-03-14T12:59:46;22.73;;;7.05;;
59474;SDS011;45288;51.136;16.928;2023-03-14T13:04:44;24.92;;;8.45;;
59474;SDS011;45288;51.136;16.928;2023-03-14T13:07:13;20.42;;;7.28;;
59474;SDS011;45288;51.136;16.928;2023-03-14T13:12:27;22.75;;;6.95;;
59474;SDS011;45288;51.136;16.928;2023-03-14T13:14:57;25.10;;;8.02;;
59474;SDS011;45288;51.136;16.928;2023-03-14T13:17:33;18.65;;;6.82;;
59474;SDS011;45288;51.136;16.928;2023-03-14T13:20:05;27.60;;;9.38;;
59474;SDS011;45288;51.136;16.928;2023-03-14T13:22:35;30.08;;;8.40;;
59474;SDS011;45288;51.136;16.928;2023-03-14T13:25:03;23.98;;;7.30;;
59474;SDS011;45288;51.136;16.928;2023-03-14T13:27:30;27.43;;;8.50;;
59474;SDS011;45288;51.136;16.928;2023-03-14T13:29:56;29.27;;;8.75;;
59474;SDS011;45288;51.136;16.928;2023-03-14T13:32:26;30.80;;;9.32;;
59474;SDS011;45288;51.136;16.928;2023-03-14T13:34:55;22.10;;;7.18;;
59474;SDS011;45288;51.136;16.928;2023-03-14T13:37:21;21.80;;;7.00;;
59474;SDS011;45288;51.136;16.928;2023-03-14T13:39:55;25.45;;;7.40;;
59474;SDS011;45288;51.136;16.928;2023-03-14T13:42:21;18.88;;;6.05;;
59474;SDS011;45288;51.136;16.928;2023-03-14T13:44:49;19.17;;;6.18;;
59474;SDS011;45288;51.136;16.928;2023-03-14T13:47:17;19.08;;;5.90;;
59474;SDS011;45288;51.136;16.928;2023-03-14T13:49:43;18.92;;;6.07;;
59474;SDS011;45288;51.136;16.928;2023-03-14T13:54:53;19.00;;;6.07;;
59474;SDS011;45288;51.136;16.928;2023-03-14T13:57:19;15.68;;;5.03;;
59474;SDS011;45288;51.136;16.928;2023-03-14T13:59:45;15.55;;;5.07;;
59474;SDS011;45288;51.136;16.928;2023-03-14T14:02:23;16.73;;;4.88;;
59474;SDS011;45288;51.136;16.928;2023-03-14T14:04:50;18.90;;;6.05;;
59474;SDS011;45288;51.136;16.928;2023-03-14T14:07:16;17.23;;;6.47;;
59474;SDS011;45288;51.136;16.928;2023-03-14T14:09:50;24.40;;;8.63;;
59474;SDS011;45288;51.136;16.928;2023-03-14T14:15:04;25.73;;;8.60;;
59474;SDS011;45288;51.136;16.928;2023-03-14T14:17:35;21.98;;;8.18;;
59474;SDS011;45288;51.136;16.928;2023-03-14T14:20:02;17.73;;;6.78;;
59474;SDS011;45288;51.136;16.928;2023-03-14T14:22:30;18.65;;;6.75;;
59474;SDS011;45288;51.136;16.928;2023-03-14T14:24:56;20.60;;;7.22;;
59474;SDS011;45288;51.136;16.928;2023-03-14T14:27:28;18.70;;;6.60;;
59474;SDS011;45288;51.136;16.928;2023-03-14T14:30:00;22.30;;;7.47;;
59474;SDS011;45288;51.136;16.928;2023-03-14T14:32:33;18.33;;;6.50;;
59474;SDS011;45288;51.136;16.928;2023-03-14T14:34:59;21.02;;;7.20;;
59474;SDS011;45288;51.136;16.928;2023-03-14T14:37:27;20.10;;;7.30;;
59474;SDS011;45288;51.136;16.928;2023-03-14T14:39:57;25.25;;;8.18;;
59474;SDS011;45288;51.136;16.928;2023-03-14T14:42:27;18.75;;;7.47;;
59474;SDS011;45288;51.136;16.928;2023-03-14T14:44:54;23.33;;;7.78;;
59474;SDS011;45288;51.136;16.928;2023-03-14T14:47:22;73.28;;;42.17;;
59474;SDS011;45288;51.136;16.928;2023-03-14T14:49:48;66.38;;;41.22;;
59474;SDS011;45288;51.136;16.928;2023-03-14T14:52:34;25.17;;;8.70;;
59474;SDS011;45288;51.136;16.928;2023-03-14T14:55:02;26.67;;;9.18;;
59474;SDS011;45288;51.136;16.928;2023-03-14T14:57:30;23.30;;;8.17;;
59474;SDS011;45288;51.136;16.928;2023-03-14T14:59:57;21.45;;;8.02;;
59474;SDS011;45288;51.136;16.928;2023-03-14T15:05:27;21.25;;;7.78;;
59474;SDS011;45288;51.136;16.928;2023-03-14T15:07:55;22.05;;;7.82;;
59474;SDS011;45288;51.136;16.928;2023-03-14T15:10:22;19.50;;;7.13;;
59474;SDS011;45288;51.136;16.928;2023-03-14T15:12:48;18.63;;;7.30;;
59474;SDS011;45288;51.136;16.928;2023-03-14T15:15:14;19.73;;;7.50;;
59474;SDS011;45288;51.136;16.928;2023-03-14T15:17:40;18.10;;;6.97;;
59474;SDS011;45288;51.136;16.928;2023-03-14T15:20:09;14.10;;;5.30;;
59474;SDS011;45288;51.136;16.928;2023-03-14T15:22:36;14.75;;;5.93;;
59474;SDS011;45288;51.136;16.928;2023-03-14T15:25:01;13.17;;;4.60;;
59474;SDS011;45288;51.136;16.928;2023-03-14T15:27:28;12.32;;;4.88;;